sensor_id;sensor_type;location;lat;lon;timestamp;pressure;altitude;pressure_sealevel;temperature;humidity
15444;BME280;7822;48.146;11.576;2023-05-07T00:58:51;95075.44;;;15.81;74.14
15444;BME280;7822;48.146;11.576;2023-05-07T01:01:18;95076.25;;;15.81;74.00
15444;BME280;7822;48.146;11.576;2023-05-07T01:03:46;95080.66;;;15.81;73.95
15444;BME280;7822;48.146;11.576;2023-05-07T01:06:14;95078.88;;;15.81;74.01
15444;BME280;7822;48.146;11.576;2023-05-07T01:08:43;95076.25;;;15.81;74.19
15444;BME280;7822;48.146;11.576;2023-05-07T01:11:11;95076.25;;;15.81;73.95
15444;BME280;7822;48.146;11.576;2023-05-07T01:13:39;95084.94;;;15.82;74.00
15444;BME280;7822;48.146;11.576;2023-05-07T01:16:09;95077.88;;;15.82;74.04
15444;BME280;7822;48.146;11.576;2023-05-07T01:18:37;95081.31;;;15.83;73.99
15444;BME280;7822;48.146;11.576;2023-05-07T01:21:04;95083.13;;;15.82;74.01
15444;BME280;7822;48.146;11.576;2023-05-07T01:23:33;95074.47;;;15.82;73.84
15444;BME280;7822;48.146;11.576;2023-05-07T01:26:01;95078.72;;;15.83;73.89
15444;BME280;7822;48.146;11.576;2023-05-07T01:28:29;95075.13;;;15.84;73.94
15444;BME280;7822;48.146;11.576;2023-05-07T01:30:58;95071.69;;;15.83;73.81
15444;BME280;7822;48.146;11.576;2023-05-07T01:33:28;95076.09;;;15.83;73.99
15444;BME280;7822;48.146;11.576;2023-05-07T01:35:57;95064.00;;;15.82;73.82
15444;BME280;7822;48.146;11.576;2023-05-07T01:38:26;95066.63;;;15.82;73.95
15444;BME280;7822;48.146;11.576;2023-05-07T01:40:55;95071.84;;;15.82;74.04
15444;BME280;7822;48.146;11.576;2023-05-07T01:43:23;95069.25;;;15.82;74.01
15444;BME280;7822;48.146;11.576;2023-05-07T01:45:50;95070.88;;;15.83;73.84
15444;BME280;7822;48.146;11.576;2023-05-07T01:48:19;95064.81;;;15.82;73.85
15444;BME280;7822;48.146;11.576;2023-05-07T01:50:47;95064.00;;;15.82;73.97
15444;BME280;7822;48.146;11.576;2023-05-07T01:53:15;95061.41;;;15.82;73.89
15444;BME280;7822;48.146;11.576;2023-05-07T01:55:42;95068.41;;;15.81;73.97
15444;BME280;7822;48.146;11.576;2023-05-07T01:58:11;95066.63;;;15.82;74.00
15444;BME280;7822;48.146;11.576;2023-05-07T02:00:39;95070.03;;;15.82;74.03
15444;BME280;7822;48.146;11.576;2023-05-07T02:03:06;95067.59;;;15.81;74.03
15444;BME280;7822;48.146;11.576;2023-05-07T02:05:34;95071.03;;;15.81;74.00
15444;BME280;7822;48.146;11.576;2023-05-07T02:08:02;95065.78;;;15.81;73.95
15444;BME280;7822;48.146;11.576;2023-05-07T02:10:29;95062.34;;;15.81;74.00
15444;BME280;7822;48.146;11.576;2023-05-07T02:12:56;95062.34;;;15.81;74.04
15444;BME280;7822;48.146;11.576;2023-05-07T02:15:25;95065.78;;;15.81;73.91
15444;BME280;7822;48.146;11.576;2023-05-07T02:17:59;95070.19;;;15.81;74.07
15444;BME280;7822;48.146;11.576;2023-05-07T02:20:27;95068.41;;;15.81;73.99
15444;BME280;7822;48.146;11.576;2023-05-07T02:22:55;95069.38;;;15.80;73.85
15444;BME280;7822;48.146;11.576;2023-05-07T02:25:22;95070.19;;;15.81;74.00
15444;BME280;7822;48.146;11.576;2023-05-07T02:27:50;95072.81;;;15.81;74.14
15444;BME280;7822;48.146;11.576;2023-05-07T02:30:17;95070.38;;;15.79;74.19
15444;BME280;7822;48.146;11.576;2023-05-07T02:32:48;95065.94;;;15.80;74.20
15444;BME280;7822;48.146;11.576;2023-05-07T02:35:16;95076.25;;;15.81;73.98
15444;BME280;7822;48.146;11.576;2023-05-07T02:37:43;95070.19;;;15.81;73.99
15444;BME280;7822;48.146;11.576;2023-05-07T02:40:11;95071.03;;;15.81;74.20
15444;BME280;7822;48.146;11.576;2023-05-07T02:42:39;95072.81;;;15.81;73.98
15444;BME280;7822;48.146;11.576;2023-05-07T02:45:07;95073.66;;;15.81;73.92
15444;BME280;7822;48.146;11.576;2023-05-07T02:47:34;95076.25;;;15.81;74.08
15444;BME280;7822;48.146;11.576;2023-05-07T02:50:04;95073.66;;;15.81;73.86
15444;BME280;7822;48.146;11.576;2023-05-07T02:52:31;95072.81;;;15.81;73.88
15444;BME280;7822;48.146;11.576;2023-05-07T02:54:59;95071.84;;;15.82;74.02
15444;BME280;7822;48.146;11.576;2023-05-07T02:57:26;95064.97;;;15.81;74.08
15444;BME280;7822;48.146;11.576;2023-05-07T02:59:54;95073.66;;;15.81;73.84
15444;BME280;7822;48.146;11.576;2023-05-07T03:02:21;95063.19;;;15.81;73.87
15444;BME280;7822;48.146;11.576;2023-05-07T03:04:48;95072.66;;;15.82;73.89
15444;BME280;7822;48.146;11.576;2023-05-07T03:07:17;95066.63;;;15.82;73.81
15444;BME280;7822;48.146;11.576;2023-05-07T03:09:45;95061.41;;;15.82;74.04
15444;BME280;7822;48.146;11.576;2023-05-07T03:12:12;95060.56;;;15.81;73.88
15444;BME280;7822;48.146;11.576;2023-05-07T03:14:40;95065.78;;;15.81;73.82
15444;BME280;7822;48.146;11.576;2023-05-07T03:17:07;95064.00;;;15.82;73.83
15444;BME280;7822;48.146;11.576;2023-05-07T03:19:34;95063.19;;;15.81;73.86
15444;BME280;7822;48.146;11.576;2023-05-07T03:22:02;95055.47;;;15.80;73.92
15444;BME280;7822;48.146;11.576;2023-05-07T03:24:31;95052.72;;;15.81;73.88
15444;BME280;7822;48.146;11.576;2023-05-07T03:26:58;95050.09;;;15.81;73.91
15444;BME280;7822;48.146;11.576;2023-05-07T03:29:27;95047.50;;;15.81;74.09
15444;BME280;7822;48.146;11.576;2023-05-07T03:31:54;95054.50;;;15.81;73.96
15444;BME280;7822;48.146;11.576;2023-05-07T03:34:22;95057.13;;;15.81;73.90
15444;BME280;7822;48.146;11.576;2023-05-07T03:36:50;95049.44;;;15.79;73.99
15444;BME280;7822;48.146;11.576;2023-05-07T03:39:17;95050.09;;;15.81;73.91
15444;BME280;7822;48.146;11.576;2023-05-07T03:41:46;95060.56;;;15.81;73.84
15444;BME280;7822;48.146;11.576;2023-05-07T03:44:13;95063.19;;;15.81;74.24
15444;BME280;7822;48.146;11.576;2023-05-07T03:46:41;95064.16;;;15.80;73.90
15444;BME280;7822;48.146;11.576;2023-05-07T03:49:08;95061.53;;;15.80;74.02
15444;BME280;7822;48.146;11.576;2023-05-07T03:51:36;95067.59;;;15.81;73.94
15444;BME280;7822;48.146;11.576;2023-05-07T03:54:03;95059.75;;;15.81;74.01
15444;BME280;7822;48.146;11.576;2023-05-07T03:56:31;95057.28;;;15.79;74.06
15444;BME280;7822;48.146;11.576;2023-05-07T03:58:59;95062.53;;;15.79;73.88
15444;BME280;7822;48.146;11.576;2023-05-07T04:01:27;95066.94;;;15.79;74.05
15444;BME280;7822;48.146;11.576;2023-05-07T04:03:55;95068.56;;;15.80;73.99
15444;BME280;7822;48.146;11.576;2023-05-07T04:06:22;95072.00;;;15.80;73.92
15444;BME280;7822;48.146;11.576;2023-05-07T04:08:50;95071.03;;;15.81;73.98
15444;BME280;7822;48.146;11.576;2023-05-07T04:11:17;95078.06;;;15.81;73.99
15444;BME280;7822;48.146;11.576;2023-05-07T04:13:46;95079.69;;;15.82;74.05
15444;BME280;7822;48.146;11.576;2023-05-07T04:16:15;95079.69;;;15.82;74.08
15444;BME280;7822;48.146;11.576;2023-05-07T04:18:42;95081.31;;;15.83;73.89
15444;BME280;7822;48.146;11.576;2023-05-07T04:21:13;95088.22;;;15.84;73.87
15444;BME280;7822;48.146;11.576;2023-05-07T04:23:41;95091.63;;;15.84;73.75
15444;BME280;7822;48.146;11.576;2023-05-07T04:26:08;95085.44;;;15.85;73.82
15444;BME280;7822;48.146;11.576;2023-05-07T04:28:36;95088.69;;;15.87;73.86
15444;BME280;7822;48.146;11.576;2023-05-07T04:31:03;95082.66;;;15.87;73.73
15444;BME280;7822;48.146;11.576;2023-05-07T04:33:33;95084.44;;;15.86;73.71
15444;BME280;7822;48.146;11.576;2023-05-07T04:36:01;95087.88;;;15.87;73.76
15444;BME280;7822;48.146;11.576;2023-05-07T04:38:29;95088.69;;;15.87;73.82
15444;BME280;7822;48.146;11.576;2023-05-07T04:40:58;95091.16;;;15.89;73.86
15444;BME280;7822;48.146;11.576;2023-05-07T04:43:25;95090.34;;;15.88;73.66
15444;BME280;7822;48.146;11.576;2023-05-07T04:45:52;95093.75;;;15.89;73.61
15444;BME280;7822;48.146;11.576;2023-05-07T04:48:20;95091.16;;;15.89;73.82
15444;BME280;7822;48.146;11.576;2023-05-07T04:50:49;95087.75;;;15.88;73.76
15444;BME280;7822;48.146;11.576;2023-05-07T04:53:17;95097.22;;;15.89;73.75
15444;BME280;7822;48.146;11.576;2023-05-07T04:55:45;95092.13;;;15.88;73.71
15444;BME280;7822;48.146;11.576;2023-05-07T04:58:12;95089.34;;;15.89;73.86
15444;BME280;7822;48.146;11.576;2023-05-07T05:00:40;95097.38;;;15.88;73.88
15444;BME280;7822;48.146;11.576;2023-05-07T05:03:08;95101.78;;;15.87;73.74
15444;BME280;7822;48.146;11.576;2023-05-07T05:05:36;95109.47;;;15.89;73.97
15444;BME280;7822;48.146;11.576;2023-05-07T05:08:05;95106.84;;;15.89;73.74
15444;BME280;7822;48.146;11.576;2023-05-07T05:10:32;95104.41;;;15.87;74.01
15444;BME280;7822;48.146;11.576;2023-05-07T05:13:00;95099.16;;;15.87;73.80
15444;BME280;7822;48.146;11.576;2023-05-07T05:15:27;95091.31;;;15.87;73.78
15444;BME280;7822;48.146;11.576;2023-05-07T05:17:58;95094.75;;;15.88;73.92
15444;BME280;7822;48.146;11.576;2023-05-07T05:20:26;95095.59;;;15.88;73.89
15444;BME280;7822;48.146;11.576;2023-05-07T05:22:53;95092.13;;;15.88;73.90
15444;BME280;7822;48.146;11.576;2023-05-07T05:25:22;95090.50;;;15.87;73.89
15444;BME280;7822;48.146;11.576;2023-05-07T05:27:50;95089.53;;;15.88;73.78
15444;BME280;7822;48.146;11.576;2023-05-07T05:30:17;95097.38;;;15.88;73.80
15444;BME280;7822;48.146;11.576;2023-05-07T05:32:47;95093.09;;;15.87;73.87
15444;BME280;7822;48.146;11.576;2023-05-07T05:35:14;95096.38;;;15.89;73.85
15444;BME280;7822;48.146;11.576;2023-05-07T05:37:41;95099.16;;;15.87;73.91
15444;BME280;7822;48.146;11.576;2023-05-07T05:40:09;95099.16;;;15.87;73.90
15444;BME280;7822;48.146;11.576;2023-05-07T05:42:39;95101.94;;;15.86;73.78
15444;BME280;7822;48.146;11.576;2023-05-07T05:45:07;95101.78;;;15.87;73.91
15444;BME280;7822;48.146;11.576;2023-05-07T05:47:34;95100.94;;;15.87;73.90
15444;BME280;7822;48.146;11.576;2023-05-07T05:50:02;95100.94;;;15.87;73.89
15444;BME280;7822;48.146;11.576;2023-05-07T05:52:29;95099.16;;;15.87;74.08
15444;BME280;7822;48.146;11.576;2023-05-07T05:54:57;95097.38;;;15.88;73.86
15444;BME280;7822;48.146;11.576;2023-05-07T05:57:24;95093.09;;;15.87;74.02
15444;BME280;7822;48.146;11.576;2023-05-07T05:59:55;95096.38;;;15.89;74.09
15444;BME280;7822;48.146;11.576;2023-05-07T06:02:23;95094.59;;;15.89;73.95
15444;BME280;7822;48.146;11.576;2023-05-07T06:04:50;95096.38;;;15.89;73.84
15444;BME280;7822;48.146;11.576;2023-05-07T06:07:18;95093.75;;;15.89;74.10
15444;BME280;7822;48.146;11.576;2023-05-07T06:09:45;95096.38;;;15.89;73.95
15444;BME280;7822;48.146;11.576;2023-05-07T06:12:13;95102.44;;;15.89;73.89
15444;BME280;7822;48.146;11.576;2023-05-07T06:14:42;95096.25;;;15.90;73.85
15444;BME280;7822;48.146;11.576;2023-05-07T06:17:11;95089.34;;;15.89;73.85
15444;BME280;7822;48.146;11.576;2023-05-07T06:19:38;95088.53;;;15.89;74.06
15444;BME280;7822;48.146;11.576;2023-05-07T06:22:06;95088.53;;;15.89;73.75
15444;BME280;7822;48.146;11.576;2023-05-07T06:24:33;95089.34;;;15.89;73.87
15444;BME280;7822;48.146;11.576;2023-05-07T06:27:00;95092.81;;;15.90;74.05
15444;BME280;7822;48.146;11.576;2023-05-07T06:29:28;95090.19;;;15.90;73.85
15444;BME280;7822;48.146;11.576;2023-05-07T06:32:05;95089.34;;;15.89;74.06
15444;BME280;7822;48.146;11.576;2023-05-07T06:34:34;95103.44;;;15.88;74.11
15444;BME280;7822;48.146;11.576;2023-05-07T06:37:02;95105.88;;;15.90;73.94
15444;BME280;7822;48.146;11.576;2023-05-07T06:39:29;95106.84;;;15.89;73.89
15444;BME280;7822;48.146;11.576;2023-05-07T06:41:57;95106.84;;;15.89;73.93
15444;BME280;7822;48.146;11.576;2023-05-07T06:44:24;95109.47;;;15.89;73.98
15444;BME280;7822;48.146;11.576;2023-05-07T06:46:52;95112.06;;;15.89;73.92
15444;BME280;7822;48.146;11.576;2023-05-07T06:49:19;95114.69;;;15.89;73.97
15444;BME280;7822;48.146;11.576;2023-05-07T06:51:48;95111.41;;;15.87;73.95
15444;BME280;7822;48.146;11.576;2023-05-07T06:54:16;95100.13;;;15.86;74.08
15444;BME280;7822;48.146;11.576;2023-05-07T06:56:43;95107.00;;;15.87;74.13
15444;BME280;7822;48.146;11.576;2023-05-07T06:59:11;95106.19;;;15.87;74.06
15444;BME280;7822;48.146;11.576;2023-05-07T07:01:38;95106.06;;;15.88;74.05
15444;BME280;7822;48.146;11.576;2023-05-07T07:04:06;95107.00;;;15.87;73.97
15444;BME280;7822;48.146;11.576;2023-05-07T07:06:34;95103.44;;;15.88;73.79
15444;BME280;7822;48.146;11.576;2023-05-07T07:09:03;95103.56;;;15.87;74.01
15444;BME280;7822;48.146;11.576;2023-05-07T07:11:30;95108.66;;;15.88;74.00
15444;BME280;7822;48.146;11.576;2023-05-07T07:13:58;95100.94;;;15.87;74.09
15444;BME280;7822;48.146;11.576;2023-05-07T07:16:25;95100.94;;;15.87;74.04
15444;BME280;7822;48.146;11.576;2023-05-07T07:18:53;95111.41;;;15.87;74.08
15444;BME280;7822;48.146;11.576;2023-05-07T07:21:20;95110.44;;;15.88;74.17
15444;BME280;7822;48.146;11.576;2023-05-07T07:23:48;95107.00;;;15.87;74.12
15444;BME280;7822;48.146;11.576;2023-05-07T07:26:17;95109.63;;;15.87;74.17
15444;BME280;7822;48.146;11.576;2023-05-07T07:28:45;95113.91;;;15.88;73.96
15444;BME280;7822;48.146;11.576;2023-05-07T07:31:13;95115.53;;;15.89;74.17
15444;BME280;7822;48.146;11.576;2023-05-07T07:33:41;95111.94;;;15.90;74.03
15444;BME280;7822;48.146;11.576;2023-05-07T07:36:09;95111.13;;;15.90;73.95
15444;BME280;7822;48.146;11.576;2023-05-07T07:38:36;95114.38;;;15.92;74.03
15444;BME280;7822;48.146;11.576;2023-05-07T07:41:04;95112.44;;;15.94;74.08
15444;BME280;7822;48.146;11.576;2023-05-07T07:43:32;95115.53;;;15.97;74.16
15444;BME280;7822;48.146;11.576;2023-05-07T07:46:00;95112.91;;;15.97;74.28
15444;BME280;7822;48.146;11.576;2023-05-07T07:48:27;95120.78;;;15.97;74.08
15444;BME280;7822;48.146;11.576;2023-05-07T07:50:55;95119.97;;;15.97;74.12
15444;BME280;7822;48.146;11.576;2023-05-07T07:53:22;95119.16;;;15.96;73.85
15444;BME280;7822;48.146;11.576;2023-05-07T07:55:50;95117.50;;;15.95;73.98
15444;BME280;7822;48.146;11.576;2023-05-07T07:58:19;95126.84;;;15.98;73.96
15444;BME280;7822;48.146;11.576;2023-05-07T08:00:48;95117.19;;;15.98;73.88
15444;BME280;7822;48.146;11.576;2023-05-07T08:03:15;95120.63;;;15.99;73.97
15444;BME280;7822;48.146;11.576;2023-05-07T08:05:43;95125.03;;;15.98;73.71
15444;BME280;7822;48.146;11.576;2023-05-07T08:08:10;95118.03;;;15.99;73.59
15444;BME280;7822;48.146;11.576;2023-05-07T08:10:38;95123.25;;;15.99;73.66
15444;BME280;7822;48.146;11.576;2023-05-07T08:13:05;95125.03;;;15.98;73.64
15444;BME280;7822;48.146;11.576;2023-05-07T08:15:33;95125.88;;;15.99;73.62
15444;BME280;7822;48.146;11.576;2023-05-07T08:18:02;95117.19;;;15.98;73.78
15444;BME280;7822;48.146;11.576;2023-05-07T08:20:30;95123.38;;;15.97;73.67
15444;BME280;7822;48.146;11.576;2023-05-07T08:22:58;95125.34;;;15.95;73.69
15444;BME280;7822;48.146;11.576;2023-05-07T08:25:25;95128.78;;;15.96;73.69
15444;BME280;7822;48.146;11.576;2023-05-07T08:27:53;95127.00;;;15.96;73.69
15444;BME280;7822;48.146;11.576;2023-05-07T08:30:20;95126.34;;;15.94;73.89
15444;BME280;7822;48.146;11.576;2023-05-07T08:32:48;95124.56;;;15.95;73.74
15444;BME280;7822;48.146;11.576;2023-05-07T08:35:17;95133.38;;;15.94;73.87
15444;BME280;7822;48.146;11.576;2023-05-07T08:37:44;95125.69;;;15.92;73.71
15444;BME280;7822;48.146;11.576;2023-05-07T08:40:12;95123.19;;;15.91;73.75
15444;BME280;7822;48.146;11.576;2023-05-07T08:42:40;95127.47;;;15.92;73.81
15444;BME280;7822;48.146;11.576;2023-05-07T08:45:08;95131.88;;;15.91;73.68
15444;BME280;7822;48.146;11.576;2023-05-07T08:47:39;95127.47;;;15.92;73.72
15444;BME280;7822;48.146;11.576;2023-05-07T08:50:07;95130.25;;;15.90;73.78
15444;BME280;7822;48.146;11.576;2023-05-07T08:52:37;95136.28;;;15.91;73.67
15444;BME280;7822;48.146;11.576;2023-05-07T08:55:05;95129.25;;;15.91;73.81
15444;BME280;7822;48.146;11.576;2023-05-07T08:57:33;95134.66;;;15.90;73.81
15444;BME280;7822;48.146;11.576;2023-05-07T09:00:01;95129.44;;;15.90;73.75
15444;BME280;7822;48.146;11.576;2023-05-07T09:02:29;95132.88;;;15.90;73.74
15444;BME280;7822;48.146;11.576;2023-05-07T09:04:56;95136.94;;;15.93;73.91
15444;BME280;7822;48.146;11.576;2023-05-07T09:07:24;95135.97;;;15.94;73.76
15444;BME280;7822;48.146;11.576;2023-05-07T09:09:54;95133.38;;;15.94;73.66
15444;BME280;7822;48.146;11.576;2023-05-07T09:12:23;95128.13;;;15.94;73.80
15444;BME280;7822;48.146;11.576;2023-05-07T09:14:51;95132.41;;;15.95;73.63
15444;BME280;7822;48.146;11.576;2023-05-07T09:17:18;95135.16;;;15.93;73.78
15444;BME280;7822;48.146;11.576;2023-05-07T09:19:46;95128.13;;;15.94;73.76
15444;BME280;7822;48.146;11.576;2023-05-07T09:22:13;95119.63;;;15.92;73.56
15444;BME280;7822;48.146;11.576;2023-05-07T09:24:41;95125.69;;;15.92;73.70
15444;BME280;7822;48.146;11.576;2023-05-07T09:27:15;95118.63;;;15.93;73.79
15444;BME280;7822;48.146;11.576;2023-05-07T09:29:43;95130.09;;;15.92;73.84
15444;BME280;7822;48.146;11.576;2023-05-07T09:32:10;95125.69;;;15.92;73.67
15444;BME280;7822;48.146;11.576;2023-05-07T09:34:38;95123.06;;;15.92;73.68
15444;BME280;7822;48.146;11.576;2023-05-07T09:37:06;95120.44;;;15.92;73.92
15444;BME280;7822;48.146;11.576;2023-05-07T09:39:39;95122.25;;;15.92;73.90
15444;BME280;7822;48.146;11.576;2023-05-07T09:42:08;95127.47;;;15.92;73.82
15444;BME280;7822;48.146;11.576;2023-05-07T09:44:36;95127.47;;;15.92;73.68
15444;BME280;7822;48.146;11.576;2023-05-07T09:47:05;95121.25;;;15.93;73.75
15444;BME280;7822;48.146;11.576;2023-05-07T09:49:34;95114.56;;;15.90;73.69
15444;BME280;7822;48.146;11.576;2023-05-07T09:52:02;95115.22;;;15.92;73.84
15444;BME280;7822;48.146;11.576;2023-05-07T09:54:32;95122.06;;;15.93;73.64
15444;BME280;7822;48.146;11.576;2023-05-07T09:57:00;95109.16;;;15.92;73.68
15444;BME280;7822;48.146;11.576;2023-05-07T09:59:29;95121.25;;;15.93;73.70
15444;BME280;7822;48.146;11.576;2023-05-07T10:01:59;95120.44;;;15.92;73.79
15444;BME280;7822;48.146;11.576;2023-05-07T10:04:30;95119.63;;;15.92;73.72
15444;BME280;7822;48.146;11.576;2023-05-07T10:06:58;95121.25;;;15.93;73.74
15444;BME280;7822;48.146;11.576;2023-05-07T10:09:26;95119.63;;;15.92;73.76
15444;BME280;7822;48.146;11.576;2023-05-07T10:11:53;95122.25;;;15.92;73.79
15444;BME280;7822;48.146;11.576;2023-05-07T10:14:21;95126.66;;;15.91;73.87
15444;BME280;7822;48.146;11.576;2023-05-07T10:16:49;95124.03;;;15.91;73.83
15444;BME280;7822;48.146;11.576;2023-05-07T10:19:18;95117.19;;;15.90;73.80
15444;BME280;7822;48.146;11.576;2023-05-07T10:21:48;95125.81;;;15.91;73.96
15444;BME280;7822;48.146;11.576;2023-05-07T10:24:19;95122.41;;;15.90;73.82
15444;BME280;7822;48.146;11.576;2023-05-07T10:26:48;95123.19;;;15.91;73.84
15444;BME280;7822;48.146;11.576;2023-05-07T10:29:18;95127.63;;;15.90;73.84
15444;BME280;7822;48.146;11.576;2023-05-07T10:31:55;95119.78;;;15.90;73.77
15444;BME280;7822;48.146;11.576;2023-05-07T10:34:28;95124.19;;;15.90;73.95
15444;BME280;7822;48.146;11.576;2023-05-07T10:36:57;95126.81;;;15.90;73.82
15444;BME280;7822;48.146;11.576;2023-05-07T10:39:24;95122.53;;;15.89;73.83
15444;BME280;7822;48.146;11.576;2023-05-07T10:41:52;95123.38;;;15.89;73.96
15444;BME280;7822;48.146;11.576;2023-05-07T10:44:24;95113.72;;;15.90;73.73
15444;BME280;7822;48.146;11.576;2023-05-07T10:47:04;95121.56;;;15.90;73.85
15444;BME280;7822;48.146;11.576;2023-05-07T10:49:37;95119.78;;;15.90;73.83
15444;BME280;7822;48.146;11.576;2023-05-07T10:52:12;95125.03;;;15.90;74.02
15444;BME280;7822;48.146;11.576;2023-05-07T10:54:41;95117.19;;;15.90;73.85
15444;BME280;7822;48.146;11.576;2023-05-07T10:59:57;95121.56;;;15.90;73.91
15444;BME280;7822;48.146;11.576;2023-05-07T11:02:27;95125.81;;;15.91;73.73
15444;BME280;7822;48.146;11.576;2023-05-07T11:05:22;95117.97;;;15.91;73.82
15444;BME280;7822;48.146;11.576;2023-05-07T11:07:53;95120.59;;;15.91;73.94
15444;BME280;7822;48.146;11.576;2023-05-07T11:10:21;95114.56;;;15.90;73.80
15444;BME280;7822;48.146;11.576;2023-05-07T11:12:49;95112.72;;;15.91;74.03
15444;BME280;7822;48.146;11.576;2023-05-07T11:18:04;95122.25;;;15.92;73.89
15444;BME280;7822;48.146;11.576;2023-05-07T11:20:49;95119.44;;;15.93;73.89
15444;BME280;7822;48.146;11.576;2023-05-07T11:26:04;95123.94;;;16.09;74.19
15444;BME280;7822;48.146;11.576;2023-05-07T11:28:36;95118.69;;;16.09;73.72
15444;BME280;7822;48.146;11.576;2023-05-07T11:31:04;95106.59;;;16.08;73.39
15444;BME280;7822;48.146;11.576;2023-05-07T11:33:32;95115.13;;;16.10;73.27
15444;BME280;7822;48.146;11.576;2023-05-07T11:36:02;95111.66;;;16.09;72.95
15444;BME280;7822;48.146;11.576;2023-05-07T11:38:30;95094.31;;;16.08;73.10
15444;BME280;7822;48.146;11.576;2023-05-07T11:40:58;95100.38;;;16.09;72.97
15444;BME280;7822;48.146;11.576;2023-05-07T11:43:26;95095.16;;;16.09;73.13
15444;BME280;7822;48.146;11.576;2023-05-07T11:45:54;95100.22;;;16.10;73.26
15444;BME280;7822;48.146;11.576;2023-05-07T11:48:22;95098.28;;;16.12;73.34
15444;BME280;7822;48.146;11.576;2023-05-07T11:50:50;95100.06;;;16.12;73.25
15444;BME280;7822;48.146;11.576;2023-05-07T11:53:20;95100.06;;;16.12;73.16
15444;BME280;7822;48.146;11.576;2023-05-07T11:55:47;95105.31;;;16.12;73.27
15444;BME280;7822;48.146;11.576;2023-05-07T11:58:20;95095.66;;;16.12;73.19
15444;BME280;7822;48.146;11.576;2023-05-07T12:00:48;95102.53;;;16.13;73.46
15444;BME280;7822;48.146;11.576;2023-05-07T12:03:16;95104.16;;;16.14;73.49
15444;BME280;7822;48.146;11.576;2023-05-07T12:05:44;95092.03;;;16.13;73.54
15444;BME280;7822;48.146;11.576;2023-05-07T12:08:13;95099.72;;;16.15;73.94
15444;BME280;7822;48.146;11.576;2023-05-07T12:10:42;95097.13;;;16.15;73.68
15444;BME280;7822;48.146;11.576;2023-05-07T12:13:16;95098.94;;;16.14;73.61
15444;BME280;7822;48.146;11.576;2023-05-07T12:15:43;95090.09;;;16.15;73.56
15444;BME280;7822;48.146;11.576;2023-05-07T12:18:11;95081.41;;;16.15;73.89
15444;BME280;7822;48.146;11.576;2023-05-07T12:20:39;95069.00;;;16.17;74.28
15444;BME280;7822;48.146;11.576;2023-05-07T12:23:07;95076.03;;;16.16;74.84
15444;BME280;7822;48.146;11.576;2023-05-07T12:25:34;95080.28;;;16.17;74.85
15444;BME280;7822;48.146;11.576;2023-05-07T12:28:04;95081.94;;;16.18;74.84
15444;BME280;7822;48.146;11.576;2023-05-07T12:30:32;95087.34;;;16.17;74.41
15444;BME280;7822;48.146;11.576;2023-05-07T12:32:59;95087.34;;;16.17;74.61
15444;BME280;7822;48.146;11.576;2023-05-07T12:35:27;95080.28;;;16.17;74.52
15444;BME280;7822;48.146;11.576;2023-05-07T12:37:55;95074.06;;;16.18;74.45
15444;BME280;7822;48.146;11.576;2023-05-07T12:40:22;95062.63;;;16.19;74.63
15444;BME280;7822;48.146;11.576;2023-05-07T12:42:52;95061.81;;;16.19;74.24
15444;BME280;7822;48.146;11.576;2023-05-07T12:45:21;95066.06;;;16.20;74.39
15444;BME280;7822;48.146;11.576;2023-05-07T12:47:49;95059.84;;;16.21;74.37
15444;BME280;7822;48.146;11.576;2023-05-07T12:50:16;95065.09;;;16.21;74.41
15444;BME280;7822;48.146;11.576;2023-05-07T12:52:45;95065.88;;;16.21;74.49
15444;BME280;7822;48.146;11.576;2023-05-07T12:55:13;95073.75;;;16.21;74.53
15444;BME280;7822;48.146;11.576;2023-05-07T12:57:41;95064.25;;;16.20;74.14
15444;BME280;7822;48.146;11.576;2023-05-07T13:00:10;95063.25;;;16.21;74.16
15444;BME280;7822;48.146;11.576;2023-05-07T13:02:39;95070.16;;;16.22;74.29
15444;BME280;7822;48.146;11.576;2023-05-07T13:05:08;95067.72;;;16.21;74.29
15444;BME280;7822;48.146;11.576;2023-05-07T13:07:35;95072.78;;;16.22;74.09
15444;BME280;7822;48.146;11.576;2023-05-07T13:10:04;95065.09;;;16.21;74.32
15444;BME280;7822;48.146;11.576;2023-05-07T13:12:31;95074.56;;;16.22;74.32
15444;BME280;7822;48.146;11.576;2023-05-07T13:14:59;95069.31;;;16.22;74.29
15444;BME280;7822;48.146;11.576;2023-05-07T13:17:26;95075.22;;;16.24;74.25
15444;BME280;7822;48.146;11.576;2023-05-07T13:19:55;95067.38;;;16.24;74.05
15444;BME280;7822;48.146;11.576;2023-05-07T13:22:23;95078.66;;;16.24;73.82
15444;BME280;7822;48.146;11.576;2023-05-07T13:24:50;95073.44;;;16.24;73.79
15444;BME280;7822;48.146;11.576;2023-05-07T13:27:18;95074.25;;;16.25;73.93
15444;BME280;7822;48.146;11.576;2023-05-07T13:29:46;95074.25;;;16.25;73.57
15444;BME280;7822;48.146;11.576;2023-05-07T13:32:13;95069.84;;;16.25;73.56
15444;BME280;7822;48.146;11.576;2023-05-07T13:34:41;95073.25;;;16.26;73.45
15444;BME280;7822;48.146;11.576;2023-05-07T13:37:10;95072.59;;;16.24;73.43
15444;BME280;7822;48.146;11.576;2023-05-07T13:39:38;95071.63;;;16.25;73.68
15444;BME280;7822;48.146;11.576;2023-05-07T13:42:05;95079.31;;;16.26;73.44
15444;BME280;7822;48.146;11.576;2023-05-07T13:44:33;95075.75;;;16.27;74.14
15444;BME280;7822;48.146;11.576;2023-05-07T13:47:00;95080.97;;;16.27;74.08
15444;BME280;7822;48.146;11.576;2023-05-07T13:49:28;95076.69;;;16.26;73.82
15444;BME280;7822;48.146;11.576;2023-05-07T13:51:55;95077.53;;;16.27;73.99
15444;BME280;7822;48.146;11.576;2023-05-07T13:54:24;95071.28;;;16.28;73.79
15444;BME280;7822;48.146;11.576;2023-05-07T13:56:52;95073.25;;;16.26;73.70
15444;BME280;7822;48.146;11.576;2023-05-07T13:59:19;95069.66;;;16.27;73.51
15444;BME280;7822;48.146;11.576;2023-05-07T14:01:47;95071.47;;;16.26;73.21
15444;BME280;7822;48.146;11.576;2023-05-07T14:04:14;95070.63;;;16.26;73.05
15444;BME280;7822;48.146;11.576;2023-05-07T14:06:43;95068.84;;;16.26;72.97
15444;BME280;7822;48.146;11.576;2023-05-07T14:09:10;95068.03;;;16.26;72.58
15444;BME280;7822;48.146;11.576;2023-05-07T14:11:41;95069.66;;;16.27;72.46